Terminal Aerodrome Forecast
Issued by NWS Upton, NY

Current Version | Previous Version | Text Only | Print | Product List | Glossary On
Versions: 1 2 3 4 5 6 7 8 9 10 11 12 13 14 15 16 17 18 19 20 21 22 23 24 25 26 27 28 29 30 31
000
FTUS41 KOKX 242300 RRA
TAFISP
TAF
KISP 242343Z 2500/2524 33004KT P6SM BKN045
     FM250300 32005KT P6SM SCT045
     FM250600 32005KT P6SM SCT250
     FM251500 30010KT P6SM SKC
     FM251900 25010KT P6SM SKC
     FM252200 25007KT P6SM SCT045=

USA.gov is the U.S. government's official web portal to all federal, state and local government web resources and services.